createdAt,value
2018-05-25T00:01:40.209Z,10.10
2018-05-25T00:04:08.972Z,10.77
2018-05-25T00:06:41.933Z,10.00
2018-05-25T00:09:12.085Z,9.73
2018-05-25T00:11:44.566Z,11.60
2018-05-25T00:14:13.405Z,11.43
2018-05-25T00:16:50.280Z,10.67
2018-05-25T00:19:19.958Z,11.07
2018-05-25T00:21:49.626Z,10.63
2018-05-25T00:24:19.252Z,10.83
2018-05-25T00:26:51.383Z,10.83
2018-05-25T00:29:20.214Z,10.80
2018-05-25T00:31:56.856Z,12.30
2018-05-25T00:34:26.432Z,12.07
2018-05-25T00:36:56.410Z,10.53
2018-05-25T00:39:25.525Z,12.13
2018-05-25T00:42:01.785Z,11.47
2018-05-25T00:44:30.645Z,12.20
2018-05-25T00:47:01.490Z,11.30
2018-05-25T00:49:30.497Z,10.73
2018-05-25T00:52:07.252Z,12.20
2018-05-25T00:54:36.096Z,12.10
2018-05-25T00:57:06.923Z,11.27
2018-05-25T00:59:39.047Z,11.53
2018-05-25T01:02:11.199Z,12.30
2018-05-25T01:04:54.264Z,12.37
2018-05-25T01:07:23.048Z,11.93
2018-05-25T01:10:00.554Z,11.17
2018-05-25T01:12:29.294Z,12.23
2018-05-25T01:14:58.070Z,11.87
2018-05-25T01:17:28.082Z,12.93
2018-05-25T01:19:56.907Z,13.40
2018-05-25T01:22:25.626Z,12.53
2018-05-25T01:24:54.665Z,13.37
2018-05-25T01:27:23.375Z,13.80
2018-05-25T01:29:54.210Z,13.30
2018-05-25T01:32:23.329Z,12.40
2018-05-25T01:34:52.032Z,12.60
2018-05-25T01:37:29.018Z,13.20
2018-05-25T01:39:58.812Z,12.13
2018-05-25T01:42:27.606Z,13.80
2018-05-25T01:44:57.152Z,13.33
2018-05-25T01:47:29.248Z,12.60
2018-05-25T01:49:59.561Z,12.97
2018-05-25T01:52:32.126Z,13.53
2018-05-25T01:55:01.122Z,13.23
2018-05-25T01:57:34.347Z,12.50
2018-05-25T02:00:03.452Z,13.23
2018-05-25T02:02:36.364Z,13.53
2018-05-25T02:05:05.200Z,13.37
2018-05-25T02:07:38.170Z,13.50
2018-05-25T02:10:07.181Z,13.40
2018-05-25T02:12:40.463Z,14.40
2018-05-25T02:15:09.198Z,14.60
2018-05-25T02:17:56.900Z,13.83
2018-05-25T02:20:25.764Z,14.83
2018-05-25T02:22:54.522Z,14.10
2018-05-25T02:25:23.634Z,13.37
2018-05-25T02:27:53.995Z,13.17
2018-05-25T02:30:22.897Z,13.40
2018-05-25T02:32:52.074Z,12.57
2018-05-25T02:35:20.766Z,13.77
2018-05-25T02:37:53.457Z,13.33
2018-05-25T02:40:23.249Z,12.13
2018-05-25T02:42:55.812Z,12.90
2018-05-25T02:45:24.805Z,12.97
2018-05-25T02:48:01.663Z,12.77
2018-05-25T02:50:30.476Z,13.77
2018-05-25T02:53:06.843Z,13.40
2018-05-25T02:55:36.793Z,13.37
2018-05-25T02:58:06.311Z,13.67
2018-05-25T03:00:35.954Z,14.33
2018-05-25T03:03:06.411Z,13.47
2018-05-25T03:05:35.403Z,14.33
2018-05-25T03:08:12.985Z,14.57
2018-05-25T03:10:41.728Z,14.07
2018-05-25T03:13:12.605Z,14.43
2018-05-25T03:15:41.735Z,12.73
2018-05-25T03:18:14.464Z,14.63
2018-05-25T03:20:43.290Z,13.83
2018-05-25T03:23:19.907Z,14.63
2018-05-25T03:25:50.297Z,15.47
2018-05-25T03:28:19.856Z,13.43
2018-05-25T03:30:48.922Z,13.23
2018-05-25T03:33:21.146Z,13.17
2018-05-25T03:35:50.310Z,13.00
2018-05-25T03:38:24.051Z,12.27
2018-05-25T03:40:52.897Z,12.37
2018-05-25T03:43:29.073Z,11.90
2018-05-25T03:46:05.348Z,12.87
2018-05-25T03:48:34.365Z,12.37
2018-05-25T03:51:16.332Z,11.80
2018-05-25T03:53:45.954Z,11.83
2018-05-25T03:56:15.001Z,12.40
2018-05-25T03:58:55.872Z,12.33
2018-05-25T04:02:10.476Z,11.63
2018-05-25T04:04:39.625Z,12.27
2018-05-25T04:07:09.160Z,11.60
2018-05-25T04:09:37.924Z,11.23
2018-05-25T04:12:06.693Z,11.03
2018-05-25T04:14:42.612Z,11.07
2018-05-25T04:17:12.386Z,10.63
2018-05-25T04:19:44.421Z,11.23
2018-05-25T04:22:13.975Z,11.50
2018-05-25T04:24:44.773Z,11.77
2018-05-25T04:27:14.424Z,12.67
2018-05-25T04:29:50.529Z,10.70
2018-05-25T04:32:19.965Z,12.10
2018-05-25T04:34:49.920Z,10.73
2018-05-25T04:37:19.458Z,10.97
2018-05-25T04:40:09.288Z,11.10
2018-05-25T04:42:39.598Z,11.90
2018-05-25T04:45:08.385Z,11.20
2018-05-25T04:47:38.220Z,11.70
2018-05-25T04:50:07.832Z,11.00
2018-05-25T04:52:37.376Z,11.80
2018-05-25T04:55:06.473Z,10.67
2018-05-25T04:57:35.439Z,11.53
2018-05-25T05:00:04.563Z,10.67
2018-05-25T05:02:33.719Z,10.43
2018-05-25T05:05:05.990Z,11.23
2018-05-25T05:07:35.563Z,9.87
2018-05-25T05:10:08.054Z,10.90
2018-05-25T05:12:37.655Z,10.70
2018-05-25T05:15:14.381Z,10.30
2018-05-25T05:17:43.489Z,10.73
2018-05-25T05:20:14.462Z,11.17
2018-05-25T05:22:43.275Z,10.80
2018-05-25T05:25:19.814Z,11.20
2018-05-25T05:27:48.634Z,11.83
2018-05-25T05:30:18.285Z,9.97
2018-05-25T05:32:47.674Z,10.10
2018-05-25T05:35:21.780Z,10.30
2018-05-25T05:37:50.561Z,10.17
2018-05-25T05:40:26.421Z,10.17
2018-05-25T05:42:55.159Z,9.97
2018-05-25T05:45:26.774Z,9.93
2018-05-25T05:47:55.510Z,12.83
2018-05-25T05:50:28.523Z,9.83
2018-05-25T05:52:57.846Z,9.23
2018-05-25T05:55:33.950Z,8.77
2018-05-25T05:58:03.506Z,10.43
2018-05-25T06:00:32.574Z,9.27
2018-05-25T06:03:01.319Z,9.80
2018-05-25T06:05:37.306Z,9.80
2018-05-25T06:08:07.052Z,9.60
2018-05-25T06:10:39.067Z,10.03
2018-05-25T06:13:08.788Z,10.60
2018-05-25T06:15:39.593Z,10.17
2018-05-25T06:18:08.369Z,9.17
2018-05-25T06:20:42.214Z,8.67
2018-05-25T06:23:11.039Z,8.70
2018-05-25T06:25:44.327Z,8.47
2018-05-25T06:28:13.193Z,9.17
2018-05-25T06:30:50.002Z,7.80
2018-05-25T06:35:50.503Z,7.70
2018-05-25T06:38:20.060Z,6.90
2018-05-25T06:40:52.979Z,7.63
2018-05-25T06:44:53.255Z,5.77
2018-05-25T06:47:22.540Z,4.10
2018-05-25T06:49:59.542Z,9.07
2018-05-25T06:52:29.177Z,4.17
2018-05-25T06:55:01.630Z,4.57
2018-05-25T06:57:30.658Z,4.60
2018-05-25T07:00:03.131Z,4.43
2018-05-25T07:02:31.919Z,3.87
2018-05-25T07:05:09.338Z,3.43
2018-05-25T07:07:38.171Z,4.77
2018-05-25T07:10:07.241Z,6.30
2018-05-25T07:12:36.126Z,4.03
2018-05-25T07:15:12.815Z,4.03
2018-05-25T07:17:41.580Z,4.90
2018-05-25T07:20:14.257Z,4.30
2018-05-25T07:22:43.045Z,3.57
2018-05-25T07:25:19.357Z,3.63
2018-05-25T07:27:48.272Z,3.27
2018-05-25T07:30:17.882Z,3.20
2018-05-25T07:32:47.836Z,4.67
2018-05-25T07:35:21.182Z,5.33
2018-05-25T07:37:50.706Z,5.20
2018-05-25T07:40:21.108Z,5.60
2018-05-25T07:42:50.711Z,5.27
2018-05-25T07:45:27.229Z,3.77
2018-05-25T07:47:56.155Z,3.50
2018-05-25T07:50:29.714Z,3.23
2018-05-25T07:52:58.814Z,2.67
2018-05-25T07:55:27.723Z,3.10
2018-05-25T07:57:56.635Z,2.90
2018-05-25T08:00:33.513Z,2.40
2018-05-25T08:03:02.572Z,3.00
2018-05-25T08:05:32.109Z,3.10
2018-05-25T08:08:01.279Z,4.73
2018-05-25T08:10:37.107Z,4.10
2018-05-25T08:13:06.698Z,3.33
2018-05-25T08:15:35.853Z,2.93
2018-05-25T08:18:04.716Z,5.37
2018-05-25T08:20:41.363Z,3.10
2018-05-25T08:23:10.986Z,2.43
2018-05-25T08:25:40.203Z,2.37
2018-05-25T08:28:09.764Z,2.87
2018-05-25T08:30:42.852Z,2.30
2018-05-25T08:33:11.675Z,3.00
2018-05-25T08:35:48.629Z,2.90
2018-05-25T08:38:17.773Z,4.50
2018-05-25T08:40:47.450Z,2.57
2018-05-25T08:43:16.332Z,2.57
2018-05-25T08:45:49.781Z,2.97
2018-05-25T08:48:18.758Z,2.53
2018-05-25T08:50:55.035Z,2.87
2018-05-25T08:53:24.101Z,2.57
2018-05-25T08:55:53.947Z,3.27
2018-05-25T08:58:22.735Z,4.03
2018-05-25T09:00:59.885Z,3.20
2018-05-25T09:03:28.741Z,3.30
2018-05-25T09:05:59.436Z,3.97
2018-05-25T09:08:28.538Z,3.07
2018-05-25T09:11:02.242Z,3.07
2018-05-25T09:13:31.061Z,2.70
2018-05-25T09:16:08.573Z,3.07
2018-05-25T09:18:37.418Z,3.07
2018-05-25T09:21:07.398Z,2.20
2018-05-25T09:23:36.530Z,1.90
2018-05-25T09:26:13.208Z,2.17
2018-05-25T09:28:42.080Z,2.67
2018-05-25T09:31:13.582Z,2.33
2018-05-25T09:33:42.365Z,1.73
2018-05-25T09:36:19.334Z,2.73
2018-05-25T09:38:48.222Z,2.27
2018-05-25T09:41:18.000Z,1.87
2018-05-25T09:43:47.893Z,2.37
2018-05-25T09:46:20.445Z,1.60
2018-05-25T09:48:49.317Z,2.80
2018-05-25T09:51:21.935Z,4.03
2018-05-25T09:53:50.806Z,1.97
2018-05-25T09:56:24.454Z,1.97
2018-05-25T09:58:54.428Z,1.70
2018-05-25T10:01:27.680Z,1.93
2018-05-25T10:03:56.891Z,2.40
2018-05-25T10:06:29.540Z,2.37
2018-05-25T10:08:58.302Z,2.00
2018-05-25T10:11:31.141Z,2.27
2018-05-25T10:13:59.943Z,3.00
2018-05-25T10:16:36.304Z,2.80
2018-05-25T10:19:05.418Z,2.90
2018-05-25T10:21:34.701Z,1.80
2018-05-25T10:24:03.533Z,2.27
2018-05-25T10:26:37.251Z,2.47
2018-05-25T10:29:06.242Z,6.03
2018-05-25T10:31:39.328Z,2.47
2018-05-25T10:34:09.238Z,2.43
2018-05-25T10:36:42.570Z,2.17
2018-05-25T10:39:11.402Z,2.63
2018-05-25T10:41:42.829Z,2.63
2018-05-25T10:44:11.656Z,2.70
2018-05-25T10:46:48.340Z,2.50
2018-05-25T10:49:17.504Z,3.10
2018-05-25T10:51:49.974Z,2.97
2018-05-25T10:54:18.877Z,3.20
2018-05-25T10:56:51.343Z,3.23
2018-05-25T10:59:20.161Z,2.93
2018-05-25T11:01:53.398Z,3.07
2018-05-25T11:04:22.547Z,3.40
2018-05-25T11:06:58.628Z,2.50
2018-05-25T11:09:27.691Z,2.63
2018-05-25T11:11:59.165Z,2.00
2018-05-25T11:14:28.101Z,2.67
2018-05-25T11:17:01.906Z,2.63
2018-05-25T11:19:30.804Z,2.73
2018-05-25T11:22:05.105Z,3.20
2018-05-25T11:27:55.402Z,2.53
2018-05-25T11:30:24.483Z,2.83
2018-05-25T11:32:53.309Z,2.30
2018-05-25T11:35:22.145Z,2.13
2018-05-25T11:37:52.225Z,2.60
2018-05-25T11:40:21.810Z,2.93
2018-05-25T11:42:50.711Z,2.67
2018-05-25T11:45:19.841Z,1.73
2018-05-25T11:47:48.665Z,2.30
2018-05-25T11:50:18.361Z,2.07
2018-05-25T11:52:47.430Z,2.13
2018-05-25T11:55:20.934Z,2.60
2018-05-25T11:57:49.754Z,2.20
2018-05-25T12:00:26.797Z,2.53
2018-05-25T12:02:56.444Z,2.50
2018-05-25T12:05:25.356Z,2.10
2018-05-25T12:07:55.403Z,2.30
2018-05-25T12:10:26.714Z,2.40
2018-05-25T12:12:55.610Z,2.90
2018-05-25T12:15:32.825Z,2.80
2018-05-25T12:18:02.410Z,3.50
2018-05-25T12:20:31.346Z,3.97
2018-05-25T12:23:00.442Z,3.47
2018-05-25T12:25:36.344Z,3.67
2018-05-25T12:28:05.223Z,2.80
2018-05-25T12:30:35.900Z,2.43
2018-05-25T12:33:05.558Z,3.10
2018-05-25T12:35:38.211Z,2.63
2018-05-25T12:38:07.060Z,2.63
2018-05-25T12:40:40.355Z,2.27
2018-05-25T12:43:10.014Z,2.40
2018-05-25T12:45:42.468Z,2.20
2018-05-25T12:48:11.548Z,2.50
2018-05-25T12:50:44.197Z,4.43
2018-05-25T12:53:13.209Z,2.47
2018-05-25T12:55:45.555Z,2.47
2018-05-25T12:58:14.407Z,2.60
2018-05-25T13:00:48.239Z,2.67
2018-05-25T13:03:17.844Z,2.63
2018-05-25T13:05:50.283Z,2.60
2018-05-25T13:08:19.176Z,2.50
2018-05-25T13:10:52.855Z,2.40
2018-05-25T13:13:21.837Z,2.57
2018-05-25T13:15:58.950Z,2.70
2018-05-25T13:18:27.787Z,2.90
2018-05-25T13:20:58.938Z,2.63
2018-05-25T13:23:28.936Z,2.37
2018-05-25T13:26:01.580Z,2.67
2018-05-25T13:28:30.469Z,3.17
2018-05-25T13:31:06.588Z,2.40
2018-05-25T13:33:36.574Z,2.83
2018-05-25T13:36:06.238Z,2.97
2018-05-25T13:38:35.516Z,2.97
2018-05-25T13:41:11.873Z,3.77
2018-05-25T13:43:41.692Z,2.83
2018-05-25T13:46:13.206Z,2.47
2018-05-25T13:48:42.041Z,2.23
2018-05-25T13:51:19.112Z,2.50
2018-05-25T13:53:47.985Z,2.20
2018-05-25T13:56:18.474Z,2.20
2018-05-25T13:58:47.350Z,2.13
2018-05-25T14:01:24.313Z,2.93
2018-05-25T14:03:53.180Z,3.23
2018-05-25T14:06:22.794Z,2.27
2018-05-25T14:08:51.930Z,2.80
2018-05-25T14:11:24.468Z,2.60
2018-05-25T14:13:53.555Z,2.63
2018-05-25T14:16:30.484Z,2.27
2018-05-25T14:18:59.349Z,2.03
2018-05-25T14:21:31.964Z,2.50
2018-05-25T14:24:01.198Z,1.83
2018-05-25T14:26:31.122Z,2.23
2018-05-25T14:29:00.759Z,3.37
2018-05-25T14:31:32.530Z,3.10
2018-05-25T14:34:02.147Z,7.07
2018-05-25T14:36:34.785Z,3.60
2018-05-25T14:39:04.104Z,3.70
2018-05-25T14:41:40.244Z,4.47
2018-05-25T14:44:09.101Z,4.47
2018-05-25T14:46:39.982Z,5.50
2018-05-25T14:49:10.095Z,4.43
2018-05-25T14:51:42.588Z,5.70
2018-05-25T14:54:11.839Z,5.00
2018-05-25T14:56:45.699Z,11.47
2018-05-25T14:59:14.749Z,12.03
2018-05-25T15:01:47.812Z,12.33
2018-05-25T15:04:16.935Z,12.40
2018-05-25T15:06:49.744Z,16.63
2018-05-25T15:09:18.685Z,12.73
2018-05-25T15:11:52.481Z,13.43
2018-05-25T15:14:21.382Z,14.10
2018-05-25T15:16:54.428Z,13.47
2018-05-25T15:19:23.676Z,13.20
2018-05-25T15:22:00.625Z,15.13
2018-05-25T15:24:30.273Z,14.10
2018-05-25T15:27:00.242Z,14.00
2018-05-25T15:29:29.143Z,14.90
2018-05-25T15:32:05.167Z,15.20
2018-05-25T15:34:34.298Z,14.87
2018-05-25T15:37:10.282Z,14.00
2018-05-25T15:39:39.375Z,14.13
2018-05-25T15:42:09.915Z,13.67
2018-05-25T15:44:39.249Z,13.67
2018-05-25T15:47:15.486Z,10.00
2018-05-25T15:49:44.595Z,11.40
2018-05-25T15:52:16.166Z,11.43
2018-05-25T15:54:45.110Z,10.83
2018-05-25T15:57:17.970Z,11.50
2018-05-25T15:59:46.846Z,11.10
2018-05-25T16:02:19.731Z,11.37
2018-05-25T16:04:48.886Z,11.17
2018-05-25T16:07:25.038Z,9.67
2018-05-25T16:09:53.890Z,9.10
2018-05-25T16:12:23.933Z,9.37
2018-05-25T16:14:52.964Z,9.57
2018-05-25T16:17:25.270Z,7.13
2018-05-25T16:19:55.445Z,8.13
2018-05-25T16:22:29.062Z,9.00
2018-05-25T16:24:57.918Z,9.13
2018-05-25T16:27:28.265Z,7.83
2018-05-25T16:29:57.763Z,7.70
2018-05-25T16:32:30.968Z,9.03
2018-05-25T16:34:59.943Z,9.10
2018-05-25T16:37:36.872Z,9.73
2018-05-25T16:40:06.642Z,9.33
2018-05-25T16:42:35.537Z,10.60
2018-05-25T16:45:04.683Z,9.83
2018-05-25T16:47:37.605Z,8.70
2018-05-25T16:50:06.536Z,8.93
2018-05-25T16:52:42.569Z,9.17
2018-05-25T16:55:11.810Z,9.87
2018-05-25T16:57:41.892Z,8.87
2018-05-25T17:00:10.803Z,8.83
2018-05-25T17:02:45.035Z,9.53
2018-05-25T17:05:14.696Z,8.30
2018-05-25T17:07:50.942Z,10.07
2018-05-25T17:10:19.789Z,10.17
2018-05-25T17:12:49.609Z,9.97
2018-05-25T17:15:18.515Z,8.57
2018-05-25T17:17:55.463Z,7.80
2018-05-25T17:22:55.719Z,12.80
2018-05-25T17:25:24.946Z,10.90
2018-05-25T17:27:57.057Z,9.93
2018-05-25T17:30:26.684Z,10.30
2018-05-25T17:32:58.482Z,11.90
2018-05-25T17:35:27.336Z,9.87
2018-05-25T17:38:03.538Z,10.97
2018-05-25T17:40:32.663Z,10.47
2018-05-25T17:43:04.869Z,10.27
2018-05-25T17:45:33.706Z,9.87
2018-05-25T17:48:06.028Z,11.47
2018-05-25T17:50:34.903Z,9.63
2018-05-25T17:53:11.528Z,9.70
2018-05-25T17:55:40.624Z,10.37
2018-05-25T17:58:17.421Z,10.13
2018-05-25T18:00:47.533Z,9.47
2018-05-25T18:03:16.823Z,11.63
2018-05-25T18:05:45.792Z,12.20
2018-05-25T18:08:19.419Z,9.77
2018-05-25T18:10:48.411Z,10.53
2018-05-25T18:13:20.503Z,11.67
2018-05-25T18:15:49.821Z,10.60
2018-05-25T18:18:26.428Z,11.63
2018-05-25T18:20:55.440Z,11.83
2018-05-25T18:23:25.034Z,10.70
2018-05-25T18:25:53.985Z,10.53
2018-05-25T18:28:31.910Z,10.90
2018-05-25T18:31:01.627Z,10.67
2018-05-25T18:33:31.542Z,10.43
2018-05-25T18:36:01.433Z,9.77
2018-05-25T18:38:32.120Z,10.40
2018-05-25T18:41:01.848Z,11.80
2018-05-25T18:43:34.334Z,10.70
2018-05-25T18:46:04.574Z,10.93
2018-05-25T18:48:37.489Z,9.63
2018-05-25T18:51:09.774Z,10.87
2018-05-25T18:53:39.108Z,13.10
2018-05-25T18:56:08.028Z,13.10
2018-05-25T18:58:41.146Z,11.77
2018-05-25T19:01:10.468Z,12.67
2018-05-25T19:03:44.419Z,12.07
2018-05-25T19:06:13.391Z,11.53
2018-05-25T19:08:45.228Z,11.80
2018-05-25T19:11:14.938Z,11.37
2018-05-25T19:13:51.467Z,11.27
2018-05-25T19:16:20.600Z,11.80
2018-05-25T19:18:49.766Z,11.03
2018-05-25T19:21:18.840Z,11.90
2018-05-25T19:23:56.043Z,12.67
2018-05-25T19:26:24.930Z,12.83
2018-05-25T19:28:54.424Z,11.97
2018-05-25T19:31:23.878Z,12.97
2018-05-25T19:33:57.040Z,12.47
2018-05-25T19:36:26.740Z,11.60
2018-05-25T19:39:03.104Z,11.50
2018-05-25T19:41:31.995Z,11.77
2018-05-25T19:46:29.297Z,12.33
2018-05-25T19:49:05.648Z,12.83
2018-05-25T19:51:35.463Z,12.30
2018-05-25T19:54:07.236Z,13.87
2018-05-25T19:59:13.231Z,13.30
2018-05-25T20:01:42.246Z,12.67
2018-05-25T20:04:14.375Z,12.70
2018-05-25T20:06:43.739Z,13.33
2018-05-25T20:09:16.049Z,13.17
2018-05-25T20:11:45.260Z,12.03
2018-05-25T20:14:21.853Z,13.87
2018-05-25T20:16:50.783Z,12.73
2018-05-25T20:19:20.631Z,13.27
2018-05-25T20:21:53.057Z,13.00
2018-05-25T20:24:23.246Z,12.23
2018-05-25T20:26:52.314Z,13.73
2018-05-25T20:29:36.015Z,12.93
2018-05-25T20:32:06.073Z,13.07
2018-05-25T20:34:36.234Z,13.67
2018-05-25T20:37:06.615Z,13.30
2018-05-25T20:39:35.871Z,14.67
2018-05-25T20:42:06.020Z,14.33
2018-05-25T20:44:35.139Z,15.37
2018-05-25T20:47:04.585Z,14.53
2018-05-25T20:49:33.537Z,24.00
2018-05-25T20:52:03.219Z,19.77
2018-05-25T20:54:33.019Z,15.70
2018-05-25T20:57:02.720Z,14.77
2018-05-25T20:59:38.970Z,14.20
2018-05-25T21:02:08.871Z,14.50
2018-05-25T21:04:38.019Z,14.23
2018-05-25T21:07:07.330Z,14.43
2018-05-25T21:09:39.394Z,15.13
2018-05-25T21:12:08.494Z,14.30
2018-05-25T21:14:42.033Z,15.53
2018-05-25T21:17:12.929Z,15.07
2018-05-25T21:19:46.075Z,14.43
2018-05-25T21:22:15.770Z,15.90
2018-05-25T21:24:48.477Z,14.63
2018-05-25T21:27:19.290Z,14.83
2018-05-25T21:29:53.677Z,15.57
2018-05-25T21:32:25.263Z,15.87
2018-05-25T21:34:56.223Z,15.63
2018-05-25T21:39:59.043Z,16.80
2018-05-25T21:42:29.382Z,16.73
2018-05-25T21:44:59.016Z,15.47
2018-05-25T21:47:41.198Z,16.13
2018-05-25T21:50:11.743Z,16.80
2018-05-25T21:52:40.634Z,17.83
2018-05-25T21:55:10.460Z,16.83
2018-05-25T21:57:40.466Z,17.40
2018-05-25T22:00:11.938Z,16.50
2018-05-25T22:02:45.468Z,16.83
2018-05-25T22:05:16.864Z,16.07
2018-05-25T22:07:53.031Z,17.20
2018-05-25T22:10:22.872Z,17.60
2018-05-25T22:12:53.617Z,18.17
2018-05-25T22:15:22.789Z,17.60
2018-05-25T22:17:54.535Z,15.60
2018-05-25T22:20:29.493Z,15.37
2018-05-25T22:23:01.376Z,16.30
2018-05-25T22:25:32.030Z,17.13
2018-05-25T22:28:05.053Z,16.70
2018-05-25T22:30:36.339Z,15.47
2018-05-25T22:33:06.333Z,16.53
2018-05-25T22:35:36.827Z,16.23
2018-05-25T22:38:06.723Z,16.57
2018-05-25T22:40:35.783Z,15.80
2018-05-25T22:43:16.684Z,15.57
2018-05-25T22:45:56.656Z,17.30
2018-05-25T22:48:46.945Z,13.20
2018-05-25T22:51:30.554Z,13.63
2018-05-25T22:56:09.231Z,12.77
2018-05-25T22:58:39.905Z,13.67
2018-05-25T23:01:09.788Z,13.80
2018-05-25T23:03:38.756Z,13.97
2018-05-25T23:06:15.005Z,14.70
2018-05-25T23:08:44.340Z,15.20
2018-05-25T23:11:14.179Z,21.37
2018-05-25T23:13:43.432Z,13.87
2018-05-25T23:16:13.768Z,16.33
2018-05-25T23:18:42.766Z,17.83
2018-05-25T23:21:12.064Z,16.23
2018-05-25T23:23:46.492Z,15.13
2018-05-25T23:26:15.328Z,15.77
2018-05-25T23:28:47.864Z,14.60
2018-05-25T23:31:16.760Z,14.00
2018-05-25T23:33:54.472Z,15.30
2018-05-25T23:36:23.489Z,15.23
2018-05-25T23:38:52.431Z,14.73
2018-05-25T23:41:21.301Z,14.70
2018-05-25T23:43:57.874Z,14.97
2018-05-25T23:46:26.656Z,15.30
2018-05-25T23:49:04.243Z,15.37
2018-05-25T23:51:34.164Z,16.60
2018-05-25T23:54:07.888Z,14.90
2018-05-25T23:56:36.682Z,14.73
2018-05-25T23:59:05.788Z,16.50
